Time;durP1;ratioP1;P1;durP2;ratioP2;P2;SDS_P1;SDS_P2;PMS_P1;PMS_P2;Temp;Humidity;BMP_temperature;BMP_pressure;BME280_temperature;BME280_humidity;BME280_pressure;Samples;Min_cycle;Max_cycle;Signal;HPM_P1;HPM_P2
2022/11/18 00:02:36;;;;;;;42.33;16.67;;;;;;;;;;6229993;23;20175;-89
2022/11/18 00:05:41;;;;;;;44.70;16.73;;;;;;;;;;6228964;23;20167;-89
2022/11/18 00:08:46;;;;;;;40.40;16.00;;;;;;;;;;6229558;23;20175;-88
2022/11/18 00:15:17;;;;;;;37.80;15.53;;;;;;;;;;6229126;23;20167;-89
2022/11/18 00:18:22;;;;;;;38.93;15.17;;;;;;;;;;6229736;23;20281;-90
2022/11/18 00:21:27;;;;;;;37.23;14.30;;;;;;;;;;6230258;23;20235;-90
2022/11/18 00:24:32;;;;;;;35.70;13.90;;;;;;;;;;6229212;23;20190;-89
2022/11/18 00:27:38;;;;;;;48.77;18.83;;;;;;;;;;6230022;23;20159;-90
2022/11/18 00:30:44;;;;;;;28.93;12.47;;;;;;;;;;6228955;23;20175;-88
2022/11/18 00:33:48;;;;;;;30.53;12.47;;;;;;;;;;6229783;23;20162;-89
2022/11/18 00:36:53;;;;;;;27.93;12.67;;;;;;;;;;6227509;23;20233;-89
2022/11/18 00:39:59;;;;;;;29.80;12.60;;;;;;;;;;6227781;23;20190;-91
2022/11/18 00:43:04;;;;;;;33.37;12.17;;;;;;;;;;6228543;23;20183;-89
2022/11/18 00:46:10;;;;;;;31.47;11.87;;;;;;;;;;6228487;23;20183;-91
2022/11/18 00:49:15;;;;;;;32.13;13.37;;;;;;;;;;6227820;23;20167;-91
2022/11/18 00:52:20;;;;;;;27.30;12.67;;;;;;;;;;6227012;23;20183;-92
2022/11/18 00:55:25;;;;;;;33.90;13.07;;;;;;;;;;6227106;23;20186;-91
2022/11/18 00:58:32;;;;;;;27.47;12.00;;;;;;;;;;6227988;23;20248;-91
2022/11/18 01:01:38;;;;;;;29.87;12.87;;;;;;;;;;6227252;23;20604;-90
2022/11/18 01:04:43;;;;;;;32.60;13.57;;;;;;;;;;6227401;23;20171;-88
2022/11/18 01:07:49;;;;;;;35.30;13.97;;;;;;;;;;6228873;23;20615;-89
2022/11/18 01:13:17;;;;;;;41.20;15.67;;;;;;;;;;6229268;23;20172;-92
2022/11/18 01:14:20;;;;;;;29.80;12.80;;;;;;;;;;6229751;23;20194;-89
2022/11/18 01:17:25;;;;;;;34.37;13.73;;;;;;;;;;6229585;23;20175;-89
2022/11/18 01:20:32;;;;;;;35.80;14.60;;;;;;;;;;6229586;23;20225;-88
2022/11/18 01:23:37;;;;;;;33.60;14.90;;;;;;;;;;6228034;23;20198;-90
2022/11/18 01:26:42;;;;;;;33.83;14.20;;;;;;;;;;6229515;23;20162;-90
2022/11/18 01:29:48;;;;;;;38.03;15.13;;;;;;;;;;6231368;23;20232;-89
2022/11/18 01:32:53;;;;;;;35.87;15.17;;;;;;;;;;6234187;23;20199;-89
2022/11/18 01:35:58;;;;;;;38.50;15.33;;;;;;;;;;6230470;23;20171;-91
2022/11/18 01:39:04;;;;;;;37.27;14.00;;;;;;;;;;6230597;23;20238;-89
2022/11/18 01:42:14;;;;;;;36.77;14.17;;;;;;;;;;6231007;23;20170;-90
2022/11/18 01:45:29;;;;;;;32.50;14.70;;;;;;;;;;6228669;23;20187;-89
2022/11/18 01:48:38;;;;;;;35.53;14.93;;;;;;;;;;6229453;23;20175;-89
2022/11/18 01:51:45;;;;;;;36.73;15.07;;;;;;;;;;6230523;23;20191;-92
2022/11/18 01:54:54;;;;;;;34.70;14.93;;;;;;;;;;6228341;23;20163;-89
2022/11/18 01:58:03;;;;;;;39.10;16.77;;;;;;;;;;6233806;23;20151;-89
2022/11/18 02:01:09;;;;;;;35.70;14.40;;;;;;;;;;6229684;23;20175;-91
2022/11/18 02:04:15;;;;;;;39.53;15.83;;;;;;;;;;6227249;23;20214;-90
2022/11/18 02:07:20;;;;;;;35.50;15.30;;;;;;;;;;6228388;23;20243;-90
2022/11/18 02:10:25;;;;;;;41.43;15.40;;;;;;;;;;6228105;23;20171;-89
2022/11/18 02:13:31;;;;;;;39.93;14.83;;;;;;;;;;6227828;23;20204;-90
2022/11/18 02:16:44;;;;;;;40.33;15.23;;;;;;;;;;6227707;23;20707;-91
2022/11/18 02:20:13;;;;;;;37.93;15.27;;;;;;;;;;6227514;23;20336;-88
2022/11/18 02:23:33;;;;;;;51.67;16.50;;;;;;;;;;6232901;23;20179;-91
2022/11/18 02:26:53;;;;;;;41.80;16.30;;;;;;;;;;6228592;23;20219;-92
2022/11/18 02:30:02;;;;;;;50.40;16.57;;;;;;;;;;6197061;23;20186;-90
2022/11/18 02:33:09;;;;;;;41.50;16.63;;;;;;;;;;6228604;23;20171;-89
2022/11/18 02:36:19;;;;;;;41.60;16.30;;;;;;;;;;6231060;23;20171;-91
2022/11/18 02:39:26;;;;;;;41.93;16.53;;;;;;;;;;6241348;22;20657;-90
2022/11/18 02:42:33;;;;;;;43.47;16.33;;;;;;;;;;6240528;23;20167;-88
2022/11/18 02:45:41;;;;;;;40.00;15.33;;;;;;;;;;6241327;23;20190;-91
2022/11/18 02:48:49;;;;;;;39.67;13.97;;;;;;;;;;6241632;23;20150;-91
2022/11/18 02:51:55;;;;;;;35.70;14.53;;;;;;;;;;6240764;23;20182;-89
2022/11/18 02:55:01;;;;;;;37.63;15.00;;;;;;;;;;6240455;22;20186;-91
2022/11/18 02:58:07;;;;;;;41.23;15.77;;;;;;;;;;6240954;22;20185;-90
2022/11/18 03:01:17;;;;;;;40.20;14.70;;;;;;;;;;6241317;23;20243;-87
2022/11/18 03:04:23;;;;;;;36.70;14.40;;;;;;;;;;6241973;23;20158;-90
2022/11/18 03:07:31;;;;;;;32.77;13.77;;;;;;;;;;6241557;23;20170;-90
2022/11/18 03:10:38;;;;;;;33.20;13.57;;;;;;;;;;6240021;22;20547;-88
2022/11/18 03:13:50;;;;;;;41.27;15.03;;;;;;;;;;6240160;23;20154;-91
2022/11/18 03:16:59;;;;;;;41.13;15.67;;;;;;;;;;6240338;23;20170;-90
2022/11/18 03:20:11;;;;;;;44.13;16.23;;;;;;;;;;6241535;23;20244;-90
2022/11/18 03:23:21;;;;;;;38.63;15.07;;;;;;;;;;6240746;23;20165;-90
2022/11/18 03:26:30;;;;;;;41.60;16.03;;;;;;;;;;6241139;22;20215;-90
2022/11/18 03:29:39;;;;;;;37.90;15.43;;;;;;;;;;6243935;22;20227;-89
2022/11/18 03:32:48;;;;;;;43.50;15.93;;;;;;;;;;6241390;23;20186;-90
2022/11/18 03:35:56;;;;;;;37.53;15.67;;;;;;;;;;6242471;23;20167;-89
2022/11/18 03:39:02;;;;;;;35.93;15.50;;;;;;;;;;6240337;23;20216;-91
2022/11/18 03:42:09;;;;;;;39.90;15.30;;;;;;;;;;6241542;22;20178;-89
2022/11/18 03:45:17;;;;;;;37.40;14.27;;;;;;;;;;6242179;22;20201;-90
2022/11/18 03:48:26;;;;;;;38.93;15.53;;;;;;;;;;6241351;23;20177;-89
2022/11/18 03:51:34;;;;;;;33.00;14.37;;;;;;;;;;6241735;23;20281;-91
2022/11/18 03:54:40;;;;;;;43.63;14.67;;;;;;;;;;6239539;23;20217;-91
2022/11/18 03:57:47;;;;;;;48.07;15.40;;;;;;;;;;6240415;22;20190;-90
2022/11/18 04:00:55;;;;;;;39.70;15.00;;;;;;;;;;6240730;22;20362;-91
2022/11/18 04:04:01;;;;;;;38.70;13.97;;;;;;;;;;6239842;23;20509;-91
2022/11/18 04:07:10;;;;;;;37.30;14.93;;;;;;;;;;6240584;23;20245;-89
2022/11/18 04:10:17;;;;;;;36.77;14.83;;;;;;;;;;6238493;23;20178;-89
2022/11/18 04:13:25;;;;;;;37.00;14.40;;;;;;;;;;6240572;22;20189;-89
2022/11/18 04:16:30;;;;;;;40.27;14.40;;;;;;;;;;6241261;23;20167;-91
2022/11/18 04:19:37;;;;;;;34.03;14.20;;;;;;;;;;6241179;22;20169;-90
2022/11/18 04:22:42;;;;;;;38.77;14.60;;;;;;;;;;6242035;23;20170;-91
2022/11/18 04:25:48;;;;;;;39.53;13.80;;;;;;;;;;6239314;23;20226;-90
2022/11/18 04:28:53;;;;;;;41.53;14.70;;;;;;;;;;6241613;23;20154;-89
2022/11/18 04:31:58;;;;;;;34.10;13.63;;;;;;;;;;6240177;23;20186;-90
2022/11/18 04:35:05;;;;;;;36.80;14.07;;;;;;;;;;6240685;23;20175;-90
2022/11/18 04:38:10;;;;;;;39.43;14.33;;;;;;;;;;6240638;23;20266;-92
2022/11/18 04:41:16;;;;;;;37.17;13.73;;;;;;;;;;6240048;23;20243;-91
2022/11/18 04:44:21;;;;;;;37.53;14.80;;;;;;;;;;6240277;23;20161;-89
2022/11/18 04:47:26;;;;;;;37.43;14.80;;;;;;;;;;6241003;23;20610;-91
2022/11/18 04:50:34;;;;;;;37.10;15.27;;;;;;;;;;6240494;23;20227;-90
2022/11/18 04:53:39;;;;;;;40.23;14.90;;;;;;;;;;6240547;23;20248;-91
2022/11/18 04:56:45;;;;;;;43.63;15.10;;;;;;;;;;6241199;23;20206;-92
2022/11/18 04:59:51;;;;;;;42.13;14.20;;;;;;;;;;6240724;23;20190;-88
2022/11/18 05:02:57;;;;;;;36.90;14.27;;;;;;;;;;6241515;23;20246;-90
2022/11/18 05:06:04;;;;;;;33.97;13.80;;;;;;;;;;6258608;23;20163;-91
2022/11/18 05:09:09;;;;;;;31.37;12.80;;;;;;;;;;6240342;23;20149;-90
2022/11/18 05:15:38;;;;;;;34.77;13.90;;;;;;;;;;6241327;23;20175;-92
2022/11/18 05:18:46;;;;;;;43.33;14.73;;;;;;;;;;6240758;23;20209;-91
2022/11/18 05:21:52;;;;;;;37.43;13.97;;;;;;;;;;6239572;23;20234;-89
2022/11/18 05:24:58;;;;;;;35.83;13.60;;;;;;;;;;6242946;23;20215;-91
2022/11/18 05:28:03;;;;;;;35.50;14.50;;;;;;;;;;6240985;23;20173;-90
2022/11/18 05:31:10;;;;;;;34.73;13.97;;;;;;;;;;6240309;23;20165;-90
2022/11/18 05:34:15;;;;;;;34.33;13.80;;;;;;;;;;6240060;23;20188;-91
2022/11/18 05:37:22;;;;;;;38.00;15.10;;;;;;;;;;6241051;23;20217;-92
2022/11/18 05:40:27;;;;;;;36.87;14.43;;;;;;;;;;6242448;23;20190;-90
2022/11/18 05:43:32;;;;;;;36.80;14.27;;;;;;;;;;6241733;23;20174;-90
2022/11/18 05:46:37;;;;;;;33.43;14.00;;;;;;;;;;6241171;23;20163;-90
2022/11/18 05:49:42;;;;;;;35.63;14.17;;;;;;;;;;6241015;23;20190;-91
2022/11/18 05:52:49;;;;;;;39.50;14.57;;;;;;;;;;6241420;23;20170;-91
2022/11/18 05:55:56;;;;;;;36.97;14.03;;;;;;;;;;6239479;23;20186;-89
2022/11/18 05:59:01;;;;;;;40.73;14.07;;;;;;;;;;6240310;23;20170;-91
2022/11/18 06:02:08;;;;;;;35.40;14.00;;;;;;;;;;6241913;23;20255;-89
2022/11/18 06:05:17;;;;;;;40.27;13.50;;;;;;;;;;6244550;23;20174;-91
2022/11/18 06:08:25;;;;;;;38.57;15.13;;;;;;;;;;6241952;23;20194;-90
2022/11/18 06:11:32;;;;;;;38.93;14.60;;;;;;;;;;6241133;23;20167;-91
2022/11/18 06:14:40;;;;;;;43.63;15.90;;;;;;;;;;6243786;23;20300;-91
2022/11/18 06:17:54;;;;;;;45.93;17.03;;;;;;;;;;6244516;22;20241;-90
2022/11/18 06:21:01;;;;;;;38.27;14.97;;;;;;;;;;6245947;23;20194;-92
2022/11/18 06:24:09;;;;;;;41.97;15.67;;;;;;;;;;6246949;23;20162;-89
2022/11/18 06:27:15;;;;;;;42.07;15.47;;;;;;;;;;6248322;23;20193;-90
2022/11/18 06:30:20;;;;;;;41.00;16.33;;;;;;;;;;6248725;23;20170;-92
2022/11/18 06:33:26;;;;;;;45.13;18.43;;;;;;;;;;6244546;22;20170;-88
2022/11/18 06:36:31;;;;;;;42.80;16.60;;;;;;;;;;6247427;22;20239;-91
2022/11/18 06:39:39;;;;;;;41.60;16.97;;;;;;;;;;6245699;23;20212;-91
2022/11/18 06:49:34;;;;;;;41.13;15.33;;;;;;;;;;6247464;23;20215;-90
2022/11/18 06:52:40;;;;;;;39.80;14.93;;;;;;;;;;6243823;23;20190;-88
2022/11/18 06:55:47;;;;;;;41.03;15.90;;;;;;;;;;6245151;23;20219;-90
2022/11/18 06:58:56;;;;;;;38.67;16.13;;;;;;;;;;6246277;22;20167;-91
2022/11/18 07:02:02;;;;;;;35.17;15.20;;;;;;;;;;6246136;23;20360;-89
2022/11/18 07:05:07;;;;;;;36.17;15.70;;;;;;;;;;6246690;23;20175;-90
2022/11/18 07:08:13;;;;;;;36.57;14.03;;;;;;;;;;6247296;22;20174;-91
2022/11/18 07:11:22;;;;;;;30.80;13.53;;;;;;;;;;6246519;23;20178;-90
2022/11/18 07:14:27;;;;;;;29.83;13.00;;;;;;;;;;6247013;23;20221;-88
2022/11/18 07:17:33;;;;;;;32.87;13.23;;;;;;;;;;6245745;23;20182;-88
2022/11/18 07:20:41;;;;;;;28.40;11.57;;;;;;;;;;6247002;23;20218;-88
2022/11/18 07:23:47;;;;;;;32.60;13.50;;;;;;;;;;6245737;22;20171;-89
2022/11/18 07:26:55;;;;;;;21.50;10.27;;;;;;;;;;6246280;23;20182;-90
2022/11/18 07:30:00;;;;;;;19.73;9.13;;;;;;;;;;6245763;23;20221;-87
2022/11/18 07:33:05;;;;;;;19.80;9.57;;;;;;;;;;6245041;23;20223;-87
2022/11/18 07:36:11;;;;;;;19.50;8.80;;;;;;;;;;6245273;22;20171;-89
2022/11/18 07:39:20;;;;;;;18.80;9.00;;;;;;;;;;6245829;23;20182;-90
2022/11/18 07:42:41;;;;;;;19.17;8.93;;;;;;;;;;6246513;23;20198;-90
2022/11/18 07:46:00;;;;;;;17.30;8.60;;;;;;;;;;6246629;23;20214;-88
2022/11/18 07:49:07;;;;;;;17.17;8.40;;;;;;;;;;6246353;22;20150;-88
2022/11/18 07:52:13;;;;;;;20.53;9.70;;;;;;;;;;6244746;23;20313;-87
2022/11/18 07:55:18;;;;;;;17.43;8.67;;;;;;;;;;6245658;23;20205;-89
2022/11/18 07:58:26;;;;;;;21.53;8.97;;;;;;;;;;6245146;23;20250;-89
2022/11/18 08:01:31;;;;;;;15.45;8.40;;;;;;;;;;6245783;23;20190;-88
2022/11/18 08:04:37;;;;;;;16.60;8.52;;;;;;;;;;6245142;23;20175;-91
2022/11/18 08:07:43;;;;;;;17.00;8.00;;;;;;;;;;6245272;22;20166;-87
2022/11/18 08:10:49;;;;;;;16.10;8.27;;;;;;;;;;6244616;23;20170;-88
2022/11/18 08:13:57;;;;;;;16.88;8.05;;;;;;;;;;6244782;23;20167;-88
2022/11/18 08:17:02;;;;;;;15.05;7.85;;;;;;;;;;6246604;23;20166;-90
2022/11/18 08:20:08;;;;;;;16.52;8.75;;;;;;;;;;6246304;23;20218;-89
2022/11/18 08:23:13;;;;;;;15.55;8.02;;;;;;;;;;6246502;22;20473;-87
2022/11/18 08:26:19;;;;;;;14.95;8.00;;;;;;;;;;6245807;23;20189;-89
2022/11/18 08:29:26;;;;;;;12.20;7.07;;;;;;;;;;6246216;23;20170;-92
2022/11/18 08:32:31;;;;;;;16.38;7.88;;;;;;;;;;6246883;23;20162;-88
2022/11/18 08:35:37;;;;;;;20.55;9.05;;;;;;;;;;6246500;23;20205;-90
2022/11/18 08:38:43;;;;;;;19.15;9.05;;;;;;;;;;6245731;23;20206;-87
2022/11/18 08:41:49;;;;;;;12.60;7.20;;;;;;;;;;6244966;23;20671;-89
2022/11/18 08:44:56;;;;;;;15.00;7.82;;;;;;;;;;6246926;23;20660;-90
2022/11/18 08:48:02;;;;;;;14.32;7.45;;;;;;;;;;6245266;23;20233;-87
2022/11/18 08:51:10;;;;;;;12.38;7.32;;;;;;;;;;6245368;23;20154;-89
2022/11/18 08:54:16;;;;;;;16.30;8.10;;;;;;;;;;6245208;22;20202;-90
2022/11/18 08:57:21;;;;;;;16.80;8.45;;;;;;;;;;6246148;23;20159;-92
2022/11/18 09:00:28;;;;;;;12.82;7.30;;;;;;;;;;6246412;22;20178;-91
2022/11/18 09:03:34;;;;;;;18.60;10.48;;;;;;;;;;6245541;23;20167;-90
2022/11/18 09:06:40;;;;;;;18.67;9.63;;;;;;;;;;6246489;23;20230;-92
2022/11/18 09:09:46;;;;;;;13.73;7.30;;;;;;;;;;6246245;22;20173;-91
2022/11/18 09:12:51;;;;;;;14.25;7.32;;;;;;;;;;6244059;23;20166;-91
2022/11/18 09:16:00;;;;;;;13.50;6.25;;;;;;;;;;6246286;23;20182;-92
2022/11/18 09:19:06;;;;;;;13.85;6.88;;;;;;;;;;6245504;23;20174;-91
2022/11/18 09:22:11;;;;;;;12.55;6.20;;;;;;;;;;6244969;23;20190;-93
2022/11/18 09:25:16;;;;;;;10.70;6.18;;;;;;;;;;6245439;22;20178;-91
2022/11/18 09:28:22;;;;;;;9.82;5.60;;;;;;;;;;6245977;23;20170;-92
2022/11/18 09:31:28;;;;;;;15.43;8.90;;;;;;;;;;6245394;23;20210;-90
2022/11/18 09:34:35;;;;;;;8.70;5.22;;;;;;;;;;6247519;23;20170;-91
2022/11/18 09:41:09;;;;;;;11.20;6.45;;;;;;;;;;6247600;22;20171;-88
2022/11/18 09:44:21;;;;;;;9.23;5.25;;;;;;;;;;6247093;23;20170;-90
2022/11/18 09:47:35;;;;;;;8.23;5.22;;;;;;;;;;6247256;23;20195;-90
2022/11/18 09:50:43;;;;;;;9.57;5.07;;;;;;;;;;6249985;23;20228;-90
2022/11/18 09:53:48;;;;;;;9.55;5.30;;;;;;;;;;6246548;22;20190;-88
2022/11/18 09:56:56;;;;;;;8.30;4.80;;;;;;;;;;6247994;23;20237;-91
2022/11/18 10:00:01;;;;;;;9.88;6.20;;;;;;;;;;6245997;22;20167;-89
2022/11/18 10:03:21;;;;;;;6.97;4.53;;;;;;;;;;6261340;23;20169;-89
2022/11/18 10:06:29;;;;;;;7.22;4.30;;;;;;;;;;6247374;23;20150;-89
2022/11/18 10:09:38;;;;;;;11.88;5.60;;;;;;;;;;6246878;23;20162;-90
2022/11/18 10:12:47;;;;;;;11.40;4.85;;;;;;;;;;6245765;23;20167;-90
2022/11/18 10:15:57;;;;;;;9.93;5.10;;;;;;;;;;6245989;23;20178;-93
2022/11/18 10:19:10;;;;;;;7.90;4.80;;;;;;;;;;6247337;23;20178;-91
2022/11/18 10:22:21;;;;;;;8.93;5.53;;;;;;;;;;6245461;23;20209;-92
2022/11/18 10:25:27;;;;;;;8.25;4.95;;;;;;;;;;6246711;23;20170;-90
2022/11/18 10:28:32;;;;;;;8.88;5.47;;;;;;;;;;6245398;22;20170;-90
2022/11/18 10:31:38;;;;;;;9.82;5.95;;;;;;;;;;6245316;23;20174;-92
2022/11/18 10:34:59;;;;;;;10.50;6.78;;;;;;;;;;6246531;23;20225;-92
2022/11/18 10:38:17;;;;;;;10.27;5.50;;;;;;;;;;6246233;23;20195;-91
2022/11/18 10:41:23;;;;;;;8.95;5.43;;;;;;;;;;6245933;23;20195;-92
2022/11/18 10:44:30;;;;;;;5.88;3.92;;;;;;;;;;6246068;23;20170;-91
2022/11/18 10:47:36;;;;;;;5.07;2.60;;;;;;;;;;6244640;23;20217;-91
2022/11/18 10:50:44;;;;;;;8.75;3.58;;;;;;;;;;6245749;23;20167;-90
2022/11/18 10:53:52;;;;;;;6.38;3.22;;;;;;;;;;6245971;22;20184;-89
2022/11/18 10:56:58;;;;;;;2.15;1.60;;;;;;;;;;6247143;23;20165;-92
2022/11/18 11:00:04;;;;;;;1.55;1.15;;;;;;;;;;6247380;23;20189;-90
2022/11/18 11:03:31;;;;;;;2.75;1.70;;;;;;;;;;6245504;23;20194;-89
2022/11/18 11:06:37;;;;;;;4.88;2.90;;;;;;;;;;6245767;23;20223;-88
2022/11/18 11:09:44;;;;;;;4.38;3.08;;;;;;;;;;6246147;23;20189;-90
2022/11/18 11:12:52;;;;;;;5.78;3.10;;;;;;;;;;6244799;23;20174;-91
2022/11/18 11:15:59;;;;;;;6.93;3.05;;;;;;;;;;6244717;23;20590;-88
2022/11/18 11:19:06;;;;;;;3.83;2.53;;;;;;;;;;6245407;23;20342;-91
2022/11/18 11:22:12;;;;;;;6.05;2.70;;;;;;;;;;6246976;23;20190;-91
2022/11/18 11:25:24;;;;;;;4.53;2.22;;;;;;;;;;6245056;23;20644;-90
2022/11/18 11:28:30;;;;;;;4.13;2.03;;;;;;;;;;6245255;23;20166;-88
2022/11/18 11:31:40;;;;;;;6.18;2.55;;;;;;;;;;6245341;23;20570;-90
2022/11/18 11:34:50;;;;;;;3.35;1.70;;;;;;;;;;6247910;23;20171;-89
2022/11/18 11:37:58;;;;;;;2.78;1.52;;;;;;;;;;6246779;23;20202;-89
2022/11/18 11:41:08;;;;;;;4.32;1.10;;;;;;;;;;6245625;23;20630;-93
2022/11/18 11:44:31;;;;;;;1.92;1.10;;;;;;;;;;6246380;22;20250;-91
2022/11/18 11:47:50;;;;;;;1.77;0.95;;;;;;;;;;6246535;23;20166;-90
2022/11/18 11:50:58;;;;;;;4.70;1.40;;;;;;;;;;6245487;23;20174;-91
2022/11/18 11:54:23;;;;;;;16.75;5.78;;;;;;;;;;6247890;22;20202;-92
2022/11/18 11:57:41;;;;;;;2.38;1.05;;;;;;;;;;6247090;23;20173;-89
2022/11/18 12:00:51;;;;;;;1.98;1.20;;;;;;;;;;6245758;23;20186;-93
2022/11/18 12:04:01;;;;;;;2.20;0.93;;;;;;;;;;6245240;23;20162;-90
2022/11/18 12:07:08;;;;;;;2.08;1.00;;;;;;;;;;6246174;23;20170;-89
2022/11/18 12:10:24;;;;;;;1.85;1.13;;;;;;;;;;6245667;22;20171;-90
2022/11/18 12:13:37;;;;;;;1.17;0.75;;;;;;;;;;6243822;23;20186;-91
2022/11/18 12:16:45;;;;;;;2.72;1.10;;;;;;;;;;6244271;23;20170;-90
2022/11/18 12:19:51;;;;;;;1.83;1.10;;;;;;;;;;6244399;23;20194;-91
2022/11/18 12:23:26;;;;;;;2.10;1.05;;;;;;;;;;6243294;22;20210;-91
2022/11/18 12:26:35;;;;;;;1.73;1.00;;;;;;;;;;6126590;23;20221;-91
2022/11/18 12:29:45;;;;;;;4.13;1.77;;;;;;;;;;6246413;23;20178;-90
2022/11/18 12:32:56;;;;;;;1.23;1.00;;;;;;;;;;6247173;23;20170;-91
2022/11/18 12:36:01;;;;;;;3.08;1.05;;;;;;;;;;6244555;23;20245;-91
2022/11/18 12:39:22;;;;;;;3.05;1.52;;;;;;;;;;6246366;23;20204;-92
2022/11/18 12:46:22;;;;;;;2.20;1.00;;;;;;;;;;6245020;23;20150;-90
2022/11/18 12:49:46;;;;;;;5.07;1.48;;;;;;;;;;6246712;23;20159;-91
2022/11/18 12:52:54;;;;;;;3.08;1.27;;;;;;;;;;6246111;23;20170;-91
2022/11/18 12:56:00;;;;;;;2.83;1.20;;;;;;;;;;6243711;23;20170;-90
2022/11/18 12:59:05;;;;;;;3.33;1.35;;;;;;;;;;6244723;23;20186;-90
2022/11/18 13:02:20;;;;;;;2.42;0.95;;;;;;;;;;6243812;22;20194;-90
2022/11/18 13:05:26;;;;;;;1.50;0.98;;;;;;;;;;6245902;23;20178;-90
2022/11/18 13:08:33;;;;;;;3.53;1.60;;;;;;;;;;6246553;23;20166;-90
2022/11/18 13:11:44;;;;;;;1.98;1.13;;;;;;;;;;6241970;23;20241;-90
2022/11/18 13:18:15;;;;;;;3.33;1.73;;;;;;;;;;6246802;23;20163;-91
2022/11/18 13:24:48;;;;;;;6.35;1.60;;;;;;;;;;6243863;23;20198;-89
2022/11/18 13:27:57;;;;;;;3.90;1.63;;;;;;;;;;6243499;23;20217;-91
2022/11/18 13:31:05;;;;;;;2.95;1.80;;;;;;;;;;6244871;23;20194;-91
2022/11/18 13:34:14;;;;;;;2.72;1.80;;;;;;;;;;6245616;23;20170;-90
2022/11/18 13:37:21;;;;;;;3.25;1.60;;;;;;;;;;6246480;23;20194;-89
2022/11/18 13:40:30;;;;;;;3.85;1.20;;;;;;;;;;6246263;23;20189;-90
2022/11/18 13:43:35;;;;;;;2.73;1.30;;;;;;;;;;6247322;22;20194;-91
2022/11/18 13:46:42;;;;;;;1.63;0.97;;;;;;;;;;6245077;23;20178;-90
2022/11/18 13:49:50;;;;;;;2.47;1.00;;;;;;;;;;6245991;23;20170;-89
2022/11/18 13:53:02;;;;;;;1.90;1.13;;;;;;;;;;6245352;23;20182;-92
2022/11/18 13:56:16;;;;;;;4.53;1.37;;;;;;;;;;6245071;23;20171;-92
2022/11/18 13:59:23;;;;;;;3.40;1.13;;;;;;;;;;6243536;23;20158;-89
2022/11/18 14:02:29;;;;;;;4.63;1.60;;;;;;;;;;6245185;23;20190;-91
2022/11/18 14:05:34;;;;;;;1.30;1.07;;;;;;;;;;6244713;23;20225;-91
2022/11/18 14:08:40;;;;;;;1.70;1.10;;;;;;;;;;6244048;23;20238;-89
2022/11/18 14:11:58;;;;;;;1.50;1.00;;;;;;;;;;6243317;22;20208;-91
2022/11/18 14:15:17;;;;;;;1.93;1.20;;;;;;;;;;6243405;23;20174;-91
2022/11/18 14:18:26;;;;;;;5.80;1.40;;;;;;;;;;6242626;23;20171;-90
2022/11/18 14:21:32;;;;;;;3.23;1.47;;;;;;;;;;6244291;23;20170;-90
2022/11/18 14:24:38;;;;;;;2.90;1.60;;;;;;;;;;6245621;23;20178;-89
2022/11/18 14:27:47;;;;;;;3.30;1.63;;;;;;;;;;6244946;23;20165;-93
2022/11/18 14:31:00;;;;;;;2.57;1.20;;;;;;;;;;6247771;23;20167;-90
2022/11/18 14:34:07;;;;;;;3.53;1.53;;;;;;;;;;6245860;23;20209;-90
2022/11/18 14:37:13;;;;;;;1.87;0.90;;;;;;;;;;6246256;23;20233;-92
2022/11/18 14:40:18;;;;;;;1.67;1.13;;;;;;;;;;6245429;23;20243;-91
2022/11/18 14:43:28;;;;;;;4.30;1.23;;;;;;;;;;6158072;23;20219;-92
2022/11/18 14:46:34;;;;;;;4.70;1.20;;;;;;;;;;6077672;23;20601;-93
2022/11/18 14:49:39;;;;;;;1.93;1.00;;;;;;;;;;5898770;24;20234;-91
2022/11/18 14:52:45;;;;;;;3.07;1.43;;;;;;;;;;5837098;24;20896;-91
2022/11/18 14:55:52;;;;;;;1.33;1.10;;;;;;;;;;5726768;24;20193;-91
2022/11/18 14:58:59;;;;;;;5.97;2.67;;;;;;;;;;5566680;25;20253;-93
